Time;durP1;ratioP1;P1;durP2;ratioP2;P2;SDS_P1;SDS_P2;PMS_P1;PMS_P2;Temp;Humidity;BMP_temperature;BMP_pressure;BME280_temperature;BME280_humidity;BME280_pressure;Samples;Min_cycle;Max_cycle;Signal;HPM_P1;HPM_P2
2022/05/05 03:01:13;;;;;;;2.10;1.90;;;22.10;49.40;;;;;;5589397;23;45978;-58
2022/05/05 03:03:38;;;;;;;1.95;1.85;;;22.10;49.40;;;;;;4916436;28;45808;-59
2022/05/05 03:06:04;;;;;;;3.20;2.90;;;22.10;49.40;;;;;;4971058;28;45136;-61
2022/05/05 03:08:30;;;;;;;2.63;2.42;;;22.10;49.40;;;;;;4956718;28;45211;-60
2022/05/05 03:10:56;;;;;;;2.70;2.45;;;22.10;49.40;;;;;;4918975;28;45234;-60
2022/05/05 03:13:21;;;;;;;2.53;2.30;;;22.10;49.40;;;;;;4947253;28;45476;-59
2022/05/05 03:15:47;;;;;;;2.40;2.20;;;22.10;49.40;;;;;;4965844;28;45484;-60
2022/05/05 03:18:12;;;;;;;2.70;2.50;;;22.10;49.50;;;;;;4950648;28;44916;-60
2022/05/05 03:20:38;;;;;;;2.55;2.33;;;22.10;49.50;;;;;;4914435;28;45345;-59
2022/05/05 03:23:04;;;;;;;2.85;2.38;;;22.10;49.50;;;;;;4934022;28;45385;-60
2022/05/05 03:25:29;;;;;;;2.70;2.50;;;22.10;49.40;;;;;;4954147;28;45495;-60
2022/05/05 03:27:56;;;;;;;2.53;2.22;;;22.10;49.40;;;;;;4917155;28;44844;-60
2022/05/05 03:30:22;;;;;;;2.45;2.25;;;22.10;49.50;;;;;;4975233;28;45451;-60
2022/05/05 03:32:48;;;;;;;2.90;2.60;;;22.10;49.50;;;;;;4972030;28;45395;-60
2022/05/05 03:35:14;;;;;;;2.10;1.90;;;22.10;49.50;;;;;;4955398;28;44945;-60
2022/05/05 03:37:39;;;;;;;2.53;2.30;;;22.10;49.50;;;;;;4951868;28;45086;-60
2022/05/05 03:40:05;;;;;;;2.85;2.63;;;22.00;49.50;;;;;;4974171;28;45198;-60
2022/05/05 03:42:31;;;;;;;2.67;2.40;;;22.10;49.50;;;;;;4970484;28;46049;-59
2022/05/05 03:44:56;;;;;;;2.60;2.40;;;22.00;49.50;;;;;;4971353;28;44889;-60
2022/05/05 03:47:22;;;;;;;3.10;2.80;;;22.10;49.50;;;;;;4973810;28;45246;-60
2022/05/05 03:49:47;;;;;;;2.40;2.20;;;22.10;49.50;;;;;;4973780;28;45127;-61
2022/05/05 03:52:13;;;;;;;2.58;2.38;;;22.00;49.50;;;;;;4975360;28;45628;-60
2022/05/05 03:54:41;;;;;;;2.70;2.50;;;22.00;49.50;;;;;;4972285;28;45272;-61
2022/05/05 03:57:06;;;;;;;2.50;2.30;;;22.00;49.50;;;;;;4968891;28;45495;-60
2022/05/05 03:59:32;;;;;;;2.90;2.63;;;22.00;49.40;;;;;;4971458;28;45054;-62
2022/05/05 04:01:57;;;;;;;3.03;2.30;;;22.00;49.50;;;;;;4971158;28;46611;-60
2022/05/05 04:04:25;;;;;;;2.60;2.40;;;22.00;49.50;;;;;;4966939;28;46057;-60
2022/05/05 04:06:50;;;;;;;4.13;2.50;;;22.00;49.50;;;;;;4968493;28;45274;-60
2022/05/05 04:09:16;;;;;;;2.78;2.58;;;22.00;50.10;;;;;;4970921;28;44823;-62
2022/05/05 04:11:41;;;;;;;2.47;2.28;;;22.00;49.50;;;;;;4970265;28;46242;-60
2022/05/05 04:14:07;;;;;;;2.47;2.28;;;22.00;49.50;;;;;;4969665;28;48376;-60
2022/05/05 04:16:33;;;;;;;2.63;2.42;;;22.00;49.50;;;;;;4969457;28;46341;-57
2022/05/05 04:19:01;;;;;;;2.30;2.10;;;22.00;49.50;;;;;;4952669;28;45243;-60
2022/05/05 04:21:26;;;;;;;2.55;2.35;;;22.00;49.50;;;;;;4970656;28;45584;-59
2022/05/05 04:23:52;;;;;;;2.65;2.45;;;22.00;49.50;;;;;;4969899;28;44935;-60
2022/05/05 04:26:18;;;;;;;2.65;2.30;;;22.00;49.50;;;;;;4972061;28;45242;-60
2022/05/05 04:28:44;;;;;;;2.33;2.13;;;22.00;49.50;;;;;;4936712;28;45493;-60
2022/05/05 04:31:13;;;;;;;2.60;2.40;;;22.00;49.50;;;;;;4954566;28;45237;-59
2022/05/05 04:33:39;;;;;;;2.25;2.05;;;22.00;49.50;;;;;;4939480;28;45242;-61
2022/05/05 04:36:05;;;;;;;2.40;2.20;;;21.90;49.50;;;;;;4952836;28;45449;-60
2022/05/05 04:38:31;;;;;;;2.42;2.22;;;22.00;49.50;;;;;;4936980;28;47012;-61
2022/05/05 04:40:56;;;;;;;2.40;2.20;;;22.00;49.50;;;;;;4968347;28;45330;-61
2022/05/05 04:43:22;;;;;;;2.40;2.20;;;22.00;49.60;;;;;;4970754;28;44974;-61
2022/05/05 04:45:47;;;;;;;2.05;1.95;;;21.90;49.50;;;;;;4972966;28;45418;-60
2022/05/05 04:48:13;;;;;;;2.60;2.40;;;22.00;49.60;;;;;;4971610;28;45415;-60
2022/05/05 04:50:38;;;;;;;2.60;2.40;;;21.90;49.50;;;;;;4945795;28;46572;-60
2022/05/05 04:53:05;;;;;;;2.80;2.50;;;21.90;49.50;;;;;;4955202;28;44750;-60
2022/05/05 04:55:30;;;;;;;3.63;2.50;;;21.90;49.50;;;;;;4950573;28;45326;-60
2022/05/05 04:57:56;;;;;;;2.25;1.98;;;21.90;49.60;;;;;;4952309;28;45235;-61
2022/05/05 05:00:22;;;;;;;3.08;1.95;;;21.90;49.50;;;;;;4970088;28;45650;-60
2022/05/05 05:02:48;;;;;;;2.70;2.50;;;21.90;49.50;;;;;;4971446;28;45246;-60
2022/05/05 05:05:14;;;;;;;2.92;2.38;;;21.90;49.50;;;;;;4952724;28;45356;-60
2022/05/05 05:07:39;;;;;;;2.58;2.30;;;21.90;49.50;;;;;;4954222;28;45449;-61
2022/05/05 05:10:06;;;;;;;2.67;2.10;;;21.90;49.50;;;;;;4948209;28;46402;-59
2022/05/05 05:12:31;;;;;;;2.92;2.63;;;21.90;49.50;;;;;;4967053;28;45223;-60
2022/05/05 05:14:58;;;;;;;3.15;2.55;;;21.90;49.50;;;;;;4952058;28;44682;-60
2022/05/05 05:17:23;;;;;;;2.80;2.60;;;21.90;49.50;;;;;;4970190;28;45438;-61
2022/05/05 05:19:49;;;;;;;2.38;2.17;;;21.90;49.50;;;;;;4949429;28;46398;-60
2022/05/05 05:22:15;;;;;;;2.72;2.38;;;21.90;49.60;;;;;;4971109;28;45120;-59
2022/05/05 05:24:40;;;;;;;3.00;2.70;;;21.90;49.60;;;;;;4967596;28;45415;-61
2022/05/05 05:27:06;;;;;;;2.55;2.10;;;21.90;49.60;;;;;;4967747;28;45581;-61
2022/05/05 05:29:32;;;;;;;2.33;2.17;;;21.90;49.60;;;;;;4936035;28;47050;-60
2022/05/05 05:31:57;;;;;;;2.33;2.13;;;21.90;49.60;;;;;;4949218;28;45346;-58
2022/05/05 05:34:23;;;;;;;2.60;2.40;;;21.90;49.50;;;;;;4969801;28;44927;-59
2022/05/05 05:36:52;;;;;;;2.70;2.50;;;21.90;49.50;;;;;;4969701;28;45452;-60
2022/05/05 05:39:17;;;;;;;3.10;2.80;;;21.90;49.60;;;;;;4971053;28;45395;-59
2022/05/05 05:41:43;;;;;;;2.67;2.47;;;21.90;49.50;;;;;;4953187;28;45660;-61
2022/05/05 05:44:09;;;;;;;2.75;2.55;;;21.90;49.50;;;;;;4939440;28;45262;-61
2022/05/05 05:46:34;;;;;;;2.78;2.50;;;21.90;49.50;;;;;;4954307;28;45300;-60
2022/05/05 05:49:00;;;;;;;3.50;2.70;;;21.90;49.50;;;;;;4971727;28;47344;-61
2022/05/05 05:51:26;;;;;;;2.88;2.45;;;22.00;49.60;;;;;;4968877;28;45264;-60
2022/05/05 05:53:52;;;;;;;2.70;2.50;;;22.00;49.50;;;;;;4970144;28;45547;-60
2022/05/05 05:56:17;;;;;;;2.90;2.55;;;22.00;49.50;;;;;;4949514;28;45267;-59
2022/05/05 05:58:43;;;;;;;2.88;2.58;;;21.90;49.50;;;;;;4970521;28;45953;-62
2022/05/05 06:01:09;;;;;;;2.63;2.13;;;22.00;49.60;;;;;;4951399;28;44783;-61
2022/05/05 06:03:53;;;;;;;2.58;2.38;;;22.00;49.40;;;;;;4967985;28;44672;-61
2022/05/05 06:06:19;;;;;;;2.80;2.60;;;22.00;49.40;;;;;;4967194;28;45265;-61
2022/05/05 06:08:45;;;;;;;2.88;2.67;;;22.00;49.40;;;;;;4945137;28;46686;-61
2022/05/05 06:11:13;;;;;;;2.92;2.65;;;22.00;49.40;;;;;;4931115;28;45489;-60
2022/05/05 06:13:39;;;;;;;2.70;2.33;;;22.10;49.40;;;;;;4947523;28;45415;-61
2022/05/05 06:16:06;;;;;;;2.70;2.50;;;22.10;49.50;;;;;;4968850;28;45209;-61
2022/05/05 06:18:32;;;;;;;3.33;3.03;;;22.10;49.50;;;;;;4950164;28;46684;-58
2022/05/05 06:20:58;;;;;;;2.50;2.30;;;22.10;49.50;;;;;;4969218;28;45258;-60
2022/05/05 06:23:24;;;;;;;2.75;2.50;;;22.10;49.50;;;;;;4932716;28;45176;-62
2022/05/05 06:25:49;;;;;;;3.00;2.70;;;22.10;49.50;;;;;;4953630;28;45334;-61
2022/05/05 06:28:15;;;;;;;2.88;2.67;;;22.10;49.50;;;;;;4935669;28;46371;-61
2022/05/05 06:30:40;;;;;;;2.60;2.40;;;22.10;49.50;;;;;;4952430;28;44800;-61
2022/05/05 06:33:06;;;;;;;2.63;2.42;;;22.10;49.50;;;;;;4971280;28;45767;-61
2022/05/05 06:35:32;;;;;;;3.65;2.58;;;22.10;49.50;;;;;;4972622;28;45305;-61
2022/05/05 06:37:57;;;;;;;3.28;2.88;;;22.10;49.50;;;;;;4955878;28;45492;-60
2022/05/05 06:40:24;;;;;;;3.13;2.83;;;22.20;49.60;;;;;;4973670;28;45443;-61
2022/05/05 06:42:50;;;;;;;2.80;2.20;;;22.20;49.60;;;;;;4953329;28;45318;-62
2022/05/05 06:45:16;;;;;;;2.83;2.63;;;22.20;49.60;;;;;;4972680;28;44832;-61
2022/05/05 06:47:41;;;;;;;2.55;2.35;;;22.20;49.60;;;;;;4941824;28;46709;-61
2022/05/05 06:50:07;;;;;;;2.40;2.20;;;22.20;49.60;;;;;;4979888;28;45569;-61
2022/05/05 06:52:33;;;;;;;2.97;2.67;;;22.20;49.70;;;;;;4954217;28;46218;-62
2022/05/05 06:55:00;;;;;;;2.30;2.10;;;22.20;49.60;;;;;;4970623;28;45343;-61
2022/05/05 06:57:26;;;;;;;2.55;2.35;;;22.20;49.70;;;;;;4974494;28;45018;-61
2022/05/05 06:59:51;;;;;;;5.45;2.60;;;22.20;49.70;;;;;;4974816;28;44740;-61
2022/05/05 07:02:17;;;;;;;2.60;2.40;;;22.20;49.70;;;;;;4978760;28;45440;-62
2022/05/05 07:07:27;;;;;;;2.60;2.17;;;22.20;49.70;;;;;;4967941;28;47150;-61
2022/05/05 07:12:37;;;;;;;2.67;2.47;;;22.30;49.70;;;;;;4971437;28;45333;-61
2022/05/05 07:15:03;;;;;;;3.55;2.60;;;22.30;49.70;;;;;;4954375;28;44714;-62
2022/05/05 07:17:29;;;;;;;2.50;2.30;;;22.30;49.80;;;;;;4922185;28;48500;-61
2022/05/05 07:19:55;;;;;;;2.97;2.75;;;22.30;49.70;;;;;;4964798;28;44694;-61
2022/05/05 07:22:20;;;;;;;2.40;2.17;;;22.30;49.80;;;;;;4969848;28;45310;-61
2022/05/05 07:24:46;;;;;;;3.60;2.35;;;22.40;49.80;;;;;;4931522;28;45458;-63
2022/05/05 07:27:12;;;;;;;2.95;2.65;;;22.40;49.80;;;;;;4964271;28;45537;-62
2022/05/05 07:29:38;;;;;;;2.33;2.13;;;22.40;49.80;;;;;;4930253;28;46606;-62
2022/05/05 07:32:04;;;;;;;2.70;2.20;;;22.40;49.80;;;;;;4936665;28;46581;-63
2022/05/05 07:34:30;;;;;;;2.08;1.85;;;22.40;49.70;;;;;;4933919;28;45359;-62
2022/05/05 07:36:56;;;;;;;2.42;2.17;;;22.40;49.70;;;;;;4952612;28;46470;-62
2022/05/05 07:39:22;;;;;;;2.97;2.53;;;22.40;49.70;;;;;;4974423;28;44796;-59
2022/05/05 07:41:49;;;;;;;4.38;2.22;;;22.50;49.70;;;;;;4970731;28;45096;-62
2022/05/05 07:44:15;;;;;;;2.47;2.28;;;22.50;49.70;;;;;;4973877;28;44737;-61
2022/05/05 07:46:41;;;;;;;3.00;2.70;;;22.50;49.60;;;;;;4967091;28;45388;-62
2022/05/05 07:49:07;;;;;;;2.67;2.47;;;22.50;49.60;;;;;;4973509;28;45163;-62
2022/05/05 07:51:32;;;;;;;2.60;2.40;;;22.50;49.60;;;;;;4955740;28;45253;-62
2022/05/05 07:56:43;;;;;;;3.08;2.55;;;22.50;49.60;;;;;;4969776;28;46050;-61
2022/05/05 07:59:09;;;;;;;2.60;2.40;;;22.50;49.60;;;;;;4937273;28;45141;-61
2022/05/05 08:01:34;;;;;;;2.42;2.20;;;22.60;49.60;;;;;;4953190;28;44766;-60
2022/05/05 08:04:00;;;;;;;2.47;2.28;;;22.60;49.50;;;;;;4976921;28;45516;-65
2022/05/05 08:06:26;;;;;;;2.40;2.20;;;22.60;49.50;;;;;;4938270;28;47026;-65
2022/05/05 08:08:51;;;;;;;3.70;2.50;;;22.70;49.50;;;;;;4956531;28;45094;-66
2022/05/05 08:11:17;;;;;;;2.35;2.15;;;22.70;49.50;;;;;;4967556;28;45704;-66
2022/05/05 08:13:43;;;;;;;2.38;2.17;;;22.70;49.50;;;;;;4975727;28;45720;-70
2022/05/05 08:16:08;;;;;;;2.40;2.20;;;22.70;49.50;;;;;;4958439;28;45181;-68
2022/05/05 08:18:38;;;;;;;2.53;2.33;;;22.70;49.50;;;;;;4928069;28;45382;-69
2022/05/05 08:21:09;;;;;;;2.55;2.35;;;22.70;49.50;;;;;;4972753;28;45296;-68
2022/05/05 08:23:34;;;;;;;2.60;2.40;;;22.70;49.40;;;;;;4937249;28;45395;-68
2022/05/05 08:28:44;;;;;;;2.58;2.35;;;22.80;49.50;;;;;;4958364;28;44966;-68
2022/05/05 08:31:10;;;;;;;2.47;2.00;;;22.80;49.40;;;;;;4942666;28;45300;-68
2022/05/05 08:33:36;;;;;;;2.53;2.33;;;22.80;49.40;;;;;;4955706;28;45271;-67
2022/05/05 08:36:02;;;;;;;4.20;2.22;;;22.90;49.50;;;;;;4942173;28;47134;-67
2022/05/05 08:38:27;;;;;;;2.45;2.25;;;22.90;49.50;;;;;;4938867;28;45096;-67
2022/05/05 08:40:53;;;;;;;3.33;2.50;;;22.90;49.40;;;;;;4963689;28;45642;-67
2022/05/05 08:43:19;;;;;;;2.10;1.98;;;22.90;49.40;;;;;;4938219;28;44723;-67
2022/05/05 08:45:47;;;;;;;2.42;2.22;;;22.90;49.50;;;;;;4924168;28;45567;-67
2022/05/05 08:48:12;;;;;;;2.53;2.33;;;22.90;49.40;;;;;;4952622;28;45211;-68
2022/05/05 08:50:39;;;;;;;2.15;1.95;;;22.90;49.40;;;;;;4950293;28;45054;-67
2022/05/05 08:53:05;;;;;;;2.30;2.10;;;22.90;49.40;;;;;;4959606;28;45232;-68
2022/05/05 08:55:31;;;;;;;3.20;2.53;;;22.90;49.40;;;;;;4941321;28;46080;-67
2022/05/05 08:57:57;;;;;;;2.22;2.08;;;22.90;49.40;;;;;;4961650;28;45286;-67
2022/05/05 09:00:24;;;;;;;2.20;2.00;;;22.90;49.40;;;;;;4974678;28;45366;-67
2022/05/05 09:02:56;;;;;;;2.40;2.20;;;23.00;49.50;;;;;;4976631;28;44590;-66
2022/05/05 09:05:43;;;;;;;3.63;2.60;;;23.00;49.50;;;;;;4932557;28;45612;-66
2022/05/05 09:08:28;;;;;;;2.35;2.10;;;23.00;49.40;;;;;;4969576;28;45292;-66
2022/05/05 09:11:04;;;;;;;2.50;2.05;;;23.00;49.50;;;;;;4955463;28;45118;-67
2022/05/05 09:13:38;;;;;;;2.22;2.10;;;23.00;49.40;;;;;;4938828;28;45140;-65
2022/05/05 09:16:05;;;;;;;2.20;2.00;;;23.00;49.40;;;;;;4931975;28;45334;-66
2022/05/05 09:18:32;;;;;;;2.83;2.05;;;23.10;49.40;;;;;;4939055;28;44728;-67
2022/05/05 09:21:05;;;;;;;1.80;1.70;;;23.00;49.40;;;;;;4937361;28;46797;-68
2022/05/05 09:23:36;;;;;;;2.40;2.20;;;23.00;49.40;;;;;;4940827;28;45196;-67
2022/05/05 09:26:04;;;;;;;2.35;2.15;;;23.10;49.50;;;;;;4954764;28;46213;-67
2022/05/05 09:28:35;;;;;;;2.33;2.00;;;23.10;49.40;;;;;;4914495;28;45123;-66
2022/05/05 09:31:06;;;;;;;2.22;2.03;;;23.10;49.40;;;;;;4943562;28;45558;-67
2022/05/05 09:33:35;;;;;;;2.40;2.20;;;23.10;49.40;;;;;;4935007;28;45265;-67
2022/05/05 09:36:05;;;;;;;2.10;1.90;;;23.10;49.40;;;;;;4980531;28;45501;-66
2022/05/05 09:38:56;;;;;;;2.00;1.85;;;23.10;49.30;;;;;;4922182;28;45123;-67
2022/05/05 09:41:23;;;;;;;2.22;2.03;;;23.10;49.30;;;;;;4974072;28;45286;-67
2022/05/05 09:43:49;;;;;;;2.47;2.10;;;23.20;49.30;;;;;;4918196;28;45237;-67
2022/05/05 09:46:26;;;;;;;2.20;2.00;;;23.20;49.30;;;;;;4958369;28;45509;-67
2022/05/05 09:48:52;;;;;;;2.03;1.83;;;23.20;49.30;;;;;;4956633;28;45258;-66
2022/05/05 09:51:18;;;;;;;2.20;2.00;;;23.30;49.20;;;;;;4940283;28;45355;-66
2022/05/05 09:59:14;;;;;;;4.60;2.33;;;23.30;49.70;;;;;;4955774;28;45363;-66
2022/05/05 10:01:41;;;;;;;2.30;2.10;;;23.30;49.10;;;;;;4923736;28;45340;-67
2022/05/05 10:04:07;;;;;;;2.47;2.28;;;23.30;49.10;;;;;;4953086;28;44717;-67
2022/05/05 10:06:37;;;;;;;2.00;1.80;;;23.30;49.00;;;;;;4935757;28;45271;-67
2022/05/05 10:09:04;;;;;;;2.00;1.90;;;23.40;49.00;;;;;;4935396;28;44855;-67
2022/05/05 10:11:30;;;;;;;2.00;1.85;;;23.40;49.10;;;;;;4946848;28;45436;-67
2022/05/05 10:13:56;;;;;;;2.33;2.13;;;23.40;49.00;;;;;;4956980;28;45193;-67
2022/05/05 10:16:22;;;;;;;2.17;1.95;;;23.40;49.00;;;;;;4955352;28;46469;-67
2022/05/05 10:18:47;;;;;;;2.22;2.03;;;23.40;49.00;;;;;;4953837;28;45209;-67
2022/05/05 10:21:31;;;;;;;2.20;2.00;;;23.40;49.00;;;;;;4958769;28;45405;-67
2022/05/05 10:24:16;;;;;;;2.13;1.90;;;23.40;49.00;;;;;;4925999;28;44724;-67
2022/05/05 10:26:44;;;;;;;1.85;1.75;;;23.40;49.00;;;;;;4939413;28;46744;-67
2022/05/05 10:29:40;;;;;;;1.80;1.70;;;23.40;49.00;;;;;;4956919;28;45110;-67
2022/05/05 10:32:06;;;;;;;1.80;1.70;;;23.40;49.00;;;;;;4955554;28;45047;-67
2022/05/05 10:34:32;;;;;;;2.20;2.00;;;23.40;49.00;;;;;;4974325;28;45554;-67
2022/05/05 10:37:00;;;;;;;2.28;2.08;;;23.40;49.00;;;;;;4928773;28;44861;-67
2022/05/05 10:39:26;;;;;;;2.33;2.13;;;23.40;49.00;;;;;;4936047;28;45836;-67
2022/05/05 10:42:15;;;;;;;1.92;1.83;;;23.40;49.00;;;;;;4925605;28;45222;-68
2022/05/05 10:45:15;;;;;;;1.80;1.70;;;23.40;49.00;;;;;;4952642;28;45194;-67
2022/05/05 10:47:55;;;;;;;1.73;1.63;;;23.40;48.90;;;;;;4947861;28;45512;-67
2022/05/05 10:53:30;;;;;;;1.98;1.88;;;23.40;49.00;;;;;;4958019;28;45175;-67
2022/05/05 10:55:56;;;;;;;1.95;1.85;;;23.40;48.90;;;;;;4937688;28;45222;-67
2022/05/05 10:58:59;;;;;;;2.40;2.20;;;23.40;49.00;;;;;;4925330;28;45508;-67
2022/05/05 11:01:29;;;;;;;2.38;2.10;;;23.50;49.00;;;;;;4970244;28;45759;-68
2022/05/05 11:04:15;;;;;;;2.33;2.13;;;23.50;48.90;;;;;;4954276;28;45673;-68
2022/05/05 11:06:45;;;;;;;2.40;2.20;;;23.50;48.80;;;;;;4950669;28;45214;-68
2022/05/05 11:09:37;;;;;;;2.45;2.10;;;23.50;48.90;;;;;;4954597;28;46235;-68
2022/05/05 11:12:15;;;;;;;2.00;1.90;;;23.60;48.90;;;;;;4931802;28;45477;-68
2022/05/05 11:23:04;;;;;;;2.30;2.10;;;23.50;48.90;;;;;;4959481;28;45242;-67
2022/05/05 11:25:30;;;;;;;2.35;2.08;;;23.50;48.90;;;;;;4954544;28;45257;-68
2022/05/05 11:27:56;;;;;;;2.78;2.08;;;23.60;49.00;;;;;;4936878;28;45338;-67
2022/05/05 11:30:22;;;;;;;2.00;1.90;;;23.60;48.90;;;;;;4937367;28;45959;-67
2022/05/05 11:32:48;;;;;;;2.13;2.00;;;23.60;48.90;;;;;;4952311;28;45314;-67
2022/05/05 11:35:20;;;;;;;2.17;1.98;;;23.60;48.90;;;;;;4953498;28;45260;-66
2022/05/05 11:37:45;;;;;;;2.07;1.97;;;23.60;48.90;;;;;;4937991;28;45098;-64
2022/05/05 11:40:12;;;;;;;2.38;2.00;;;23.70;48.90;;;;;;4956306;28;45544;-65
2022/05/05 11:45:29;;;;;;;2.13;1.92;;;23.70;48.90;;;;;;4927047;28;45330;-66
2022/05/05 11:47:55;;;;;;;2.08;1.88;;;23.70;48.90;;;;;;4956408;28;45472;-66
2022/05/05 11:50:21;;;;;;;2.05;1.85;;;23.70;48.90;;;;;;4936039;28;47010;-66
2022/05/05 11:52:47;;;;;;;2.10;1.90;;;23.70;48.90;;;;;;4956129;28;44697;-64
2022/05/05 11:55:13;;;;;;;2.15;1.95;;;23.70;48.90;;;;;;4950057;28;45248;-64
2022/05/05 11:57:39;;;;;;;2.17;1.95;;;23.80;48.90;;;;;;4949901;28;45389;-65
2022/05/05 12:02:54;;;;;;;2.50;1.60;;;23.80;48.90;;;;;;4956451;28;45361;-68
2022/05/05 12:05:24;;;;;;;2.00;1.83;;;23.80;48.80;;;;;;4957088;28;45146;-68
2022/05/05 12:07:50;;;;;;;2.50;2.30;;;23.80;48.90;;;;;;4945855;28;45185;-67
2022/05/05 12:10:16;;;;;;;2.22;2.03;;;23.80;48.80;;;;;;4941061;28;45807;-68
2022/05/05 12:12:49;;;;;;;2.60;2.40;;;23.80;48.80;;;;;;4934616;28;44885;-68
2022/05/05 12:15:16;;;;;;;2.10;1.90;;;23.90;48.90;;;;;;4957344;28;45239;-68
2022/05/05 12:17:50;;;;;;;2.30;2.08;;;23.90;48.90;;;;;;4963076;28;45393;-68
2022/05/05 12:20:17;;;;;;;3.10;2.00;;;23.90;48.90;;;;;;4941053;28;46368;-68
2022/05/05 12:22:43;;;;;;;2.25;2.05;;;23.90;48.90;;;;;;4921174;28;44686;-68
2022/05/05 12:25:14;;;;;;;1.88;1.77;;;23.90;48.90;;;;;;4954331;28;45508;-68
2022/05/05 12:27:41;;;;;;;2.20;2.00;;;23.90;48.90;;;;;;4942470;28;45467;-68
2022/05/05 12:30:07;;;;;;;2.25;1.90;;;23.90;48.90;;;;;;4940609;28;45648;-68
2022/05/05 12:32:33;;;;;;;2.50;2.20;;;23.90;48.80;;;;;;4941161;28;45306;-68
2022/05/05 12:35:07;;;;;;;2.63;2.25;;;24.00;48.90;;;;;;4942667;28;44639;-68
2022/05/05 12:37:32;;;;;;;2.58;2.30;;;24.00;48.90;;;;;;4951702;28;45206;-68
2022/05/05 12:40:01;;;;;;;2.20;2.00;;;24.00;48.90;;;;;;4959636;28;46585;-66
2022/05/05 12:43:06;;;;;;;5.93;1.85;;;24.00;49.50;;;;;;4937566;28;46245;-66
2022/05/05 12:45:32;;;;;;;1.80;1.65;;;24.00;48.80;;;;;;4949610;28;45453;-66
2022/05/05 12:48:00;;;;;;;2.20;2.00;;;24.00;48.80;;;;;;4947100;28;44921;-67
2022/05/05 12:50:43;;;;;;;1.90;1.80;;;24.00;48.80;;;;;;4925758;28;47136;-67
2022/05/05 13:01:25;;;;;;;1.73;1.63;;;24.10;48.70;;;;;;4971764;28;45228;-66
2022/05/05 13:03:54;;;;;;;2.03;1.85;;;24.10;48.70;;;;;;4930957;28;45298;-67
2022/05/05 13:06:23;;;;;;;2.45;2.13;;;24.10;48.60;;;;;;4934992;28;45873;-65
2022/05/05 13:08:52;;;;;;;2.13;1.90;;;24.10;48.60;;;;;;4934022;28;45335;-66
2022/05/05 13:11:18;;;;;;;2.50;2.30;;;24.10;48.50;;;;;;4918321;28;46238;-66
2022/05/05 13:13:45;;;;;;;2.28;2.08;;;24.10;48.50;;;;;;4947709;28;45511;-67
2022/05/05 13:16:11;;;;;;;2.55;2.35;;;24.10;48.40;;;;;;4913361;28;45350;-66
2022/05/05 13:18:37;;;;;;;2.33;2.13;;;24.10;48.40;;;;;;4938304;28;45126;-66
2022/05/05 13:21:02;;;;;;;3.83;2.30;;;24.10;48.30;;;;;;4968612;28;46677;-67
2022/05/05 13:23:28;;;;;;;2.58;2.38;;;24.10;48.30;;;;;;4952796;28;45291;-68
2022/05/05 13:25:53;;;;;;;3.20;2.25;;;24.10;48.30;;;;;;4923292;28;45589;-66
2022/05/05 13:28:20;;;;;;;3.22;2.30;;;24.10;48.30;;;;;;4963134;28;44901;-66
2022/05/05 13:30:46;;;;;;;2.25;1.95;;;24.20;48.20;;;;;;4954158;28;45376;-66
2022/05/05 13:33:11;;;;;;;2.60;2.40;;;24.20;48.20;;;;;;4971704;28;45560;-65
2022/05/05 13:35:37;;;;;;;2.42;2.22;;;24.20;48.20;;;;;;4959032;28;45527;-65
2022/05/05 13:38:03;;;;;;;2.85;2.38;;;24.20;48.10;;;;;;4955868;28;45494;-66
2022/05/05 13:40:28;;;;;;;2.60;2.40;;;24.20;48.00;;;;;;4950462;28;46048;-68
2022/05/05 13:42:55;;;;;;;4.47;2.58;;;24.20;48.00;;;;;;4943218;28;45280;-66
2022/05/05 13:45:21;;;;;;;4.47;2.28;;;24.20;47.90;;;;;;4921940;28;45302;-68
2022/05/05 13:47:47;;;;;;;6.30;2.40;;;24.20;47.90;;;;;;4943241;28;45826;-67
2022/05/05 13:50:12;;;;;;;3.70;2.47;;;24.20;47.80;;;;;;4939474;28;46827;-67
2022/05/05 13:52:43;;;;;;;2.72;2.53;;;24.30;47.90;;;;;;4969013;28;45533;-67
2022/05/05 13:55:09;;;;;;;3.03;2.63;;;24.30;47.80;;;;;;4952860;28;45887;-67
2022/05/05 13:57:36;;;;;;;2.42;2.22;;;24.30;47.80;;;;;;4918861;28;44754;-68
2022/05/05 14:00:02;;;;;;;3.78;3.08;;;24.30;47.80;;;;;;4936741;28;45664;-68
2022/05/05 14:02:28;;;;;;;3.00;2.72;;;24.30;47.80;;;;;;4931341;28;45441;-68
2022/05/05 14:04:54;;;;;;;2.88;2.58;;;24.30;47.70;;;;;;4951610;28;45394;-68
2022/05/05 14:12:10;;;;;;;2.72;2.50;;;24.30;47.70;;;;;;4927640;28;44989;-67
2022/05/05 14:12:49;;;;;;;4.35;2.63;;;24.30;47.60;;;;;;4954359;28;45308;-66
2022/05/05 14:15:15;;;;;;;2.92;2.70;;;24.30;47.50;;;;;;4955078;28;45188;-66
2022/05/05 14:17:41;;;;;;;2.83;2.63;;;24.30;47.60;;;;;;4940086;28;44752;-66
2022/05/05 14:20:07;;;;;;;2.60;2.15;;;24.30;47.30;;;;;;4957888;28;45374;-66
2022/05/05 14:22:33;;;;;;;3.00;2.70;;;24.30;47.40;;;;;;4931618;28;45238;-66
2022/05/05 14:24:58;;;;;;;4.45;2.58;;;24.30;47.20;;;;;;4971948;28;45576;-66
2022/05/05 14:27:24;;;;;;;2.60;2.40;;;24.30;47.30;;;;;;4951259;28;45627;-66
2022/05/05 14:29:49;;;;;;;3.30;3.00;;;24.30;47.40;;;;;;4927633;28;48223;-66
2022/05/05 14:32:15;;;;;;;2.85;2.47;;;24.30;47.30;;;;;;4970136;28;45383;-67
2022/05/05 14:34:41;;;;;;;3.47;2.65;;;24.30;47.40;;;;;;4951079;28;45271;-66
2022/05/05 14:37:09;;;;;;;3.53;2.70;;;24.30;47.50;;;;;;4943573;28;45489;-66
2022/05/05 14:39:34;;;;;;;3.10;2.80;;;24.30;47.50;;;;;;4932652;28;46600;-67
2022/05/05 14:42:00;;;;;;;2.70;2.50;;;24.30;47.60;;;;;;4944787;28;45420;-66
2022/05/05 14:44:27;;;;;;;2.70;2.50;;;24.30;47.60;;;;;;4933683;28;45553;-67
2022/05/05 14:46:52;;;;;;;3.50;2.78;;;24.20;47.60;;;;;;4928397;28;45368;-67
2022/05/05 14:49:18;;;;;;;3.40;3.00;;;24.20;47.60;;;;;;4946174;28;46763;-66
2022/05/05 14:51:44;;;;;;;2.67;2.47;;;24.20;47.60;;;;;;4913825;28;45708;-66
2022/05/05 14:54:09;;;;;;;2.70;2.42;;;24.20;47.60;;;;;;4967402;28;44794;-66
2022/05/05 14:56:35;;;;;;;3.08;2.53;;;24.20;47.60;;;;;;4945556;28;44967;-66
2022/05/05 14:59:02;;;;;;;3.42;2.58;;;24.20;47.70;;;;;;4930983;28;46796;-66
2022/05/05 15:01:29;;;;;;;2.72;2.53;;;24.20;47.70;;;;;;4927810;28;45262;-66
2022/05/05 15:03:54;;;;;;;2.70;2.50;;;24.20;47.70;;;;;;4900702;28;45569;-66
2022/05/05 15:06:20;;;;;;;2.70;2.50;;;24.20;47.70;;;;;;4913552;28;46277;-66
2022/05/05 15:08:46;;;;;;;2.50;2.30;;;24.20;47.70;;;;;;4944269;28;45830;-66
2022/05/05 15:11:11;;;;;;;3.58;2.67;;;24.20;47.70;;;;;;4950364;28;44714;-66
2022/05/05 15:13:37;;;;;;;2.78;2.58;;;24.20;47.80;;;;;;4915460;28;45633;-66
2022/05/05 15:16:03;;;;;;;2.60;2.40;;;24.10;47.70;;;;;;4948675;28;45346;-66
2022/05/05 15:18:29;;;;;;;2.70;2.50;;;24.20;47.80;;;;;;4931683;28;45439;-65
2022/05/05 15:20:54;;;;;;;2.58;2.35;;;24.10;47.80;;;;;;4933788;28;45941;-66
2022/05/05 15:23:22;;;;;;;2.50;2.30;;;24.10;48.40;;;;;;4934849;28;45021;-66
2022/05/05 15:25:47;;;;;;;3.08;2.25;;;24.10;47.90;;;;;;4919161;28;45546;-66
2022/05/05 15:28:13;;;;;;;5.05;2.58;;;24.10;47.90;;;;;;4948959;28;45854;-66
2022/05/05 15:30:39;;;;;;;2.88;2.67;;;24.10;47.90;;;;;;4934911;28;45091;-65
2022/05/05 15:33:05;;;;;;;2.78;2.58;;;24.10;47.90;;;;;;4967681;28;45282;-66
2022/05/05 15:35:30;;;;;;;2.75;2.45;;;24.10;47.90;;;;;;4930676;28;45419;-66
2022/05/05 15:37:56;;;;;;;2.60;2.40;;;24.10;47.90;;;;;;4934672;28;45334;-66
2022/05/05 15:40:22;;;;;;;2.92;2.70;;;24.10;47.90;;;;;;4950220;28;45274;-66
2022/05/05 15:42:48;;;;;;;2.90;2.60;;;24.10;47.90;;;;;;4934155;28;45462;-66
2022/05/05 15:45:13;;;;;;;2.58;2.38;;;24.10;47.90;;;;;;4970481;28;45376;-66
2022/05/05 15:47:40;;;;;;;2.70;2.50;;;24.10;47.90;;;;;;4953148;28;45368;-65
2022/05/05 15:50:09;;;;;;;3.25;2.45;;;24.10;48.00;;;;;;4935915;28;45144;-66
2022/05/05 15:52:37;;;;;;;2.95;2.60;;;24.10;48.60;;;;;;4921581;28;45358;-66
2022/05/05 15:55:13;;;;;;;2.42;2.22;;;24.10;48.00;;;;;;4938296;28;45186;-66
2022/05/05 15:57:39;;;;;;;2.80;2.60;;;24.10;47.90;;;;;;4933650;28;45507;-66
2022/05/05 16:00:09;;;;;;;2.72;2.50;;;24.10;48.00;;;;;;4935287;28;44976;-66
2022/05/05 16:02:35;;;;;;;4.20;2.40;;;24.10;48.00;;;;;;4967596;28;45447;-65
2022/05/05 16:05:01;;;;;;;2.47;2.28;;;24.00;48.00;;;;;;4931961;28;46318;-66
2022/05/05 16:07:26;;;;;;;2.42;2.22;;;24.00;48.00;;;;;;4935520;28;45481;-66
2022/05/05 16:09:52;;;;;;;2.55;2.30;;;24.00;48.00;;;;;;4937148;28;45706;-66
2022/05/05 16:12:18;;;;;;;2.63;2.42;;;24.00;48.00;;;;;;4939403;28;46024;-66
2022/05/05 16:14:43;;;;;;;3.08;2.83;;;24.00;48.00;;;;;;4970490;28;45502;-66
2022/05/05 16:17:09;;;;;;;2.65;2.45;;;24.00;48.10;;;;;;4953278;28;45477;-66
2022/05/05 16:19:35;;;;;;;2.42;2.22;;;24.00;48.10;;;;;;4952359;28;46291;-66
2022/05/05 16:22:02;;;;;;;2.70;2.50;;;24.00;48.10;;;;;;4936307;28;45629;-66
2022/05/05 16:30:08;;;;;;;2.53;2.33;;;23.90;48.10;;;;;;4937251;28;45531;-66
2022/05/05 16:32:34;;;;;;;2.63;2.42;;;23.90;48.10;;;;;;4949723;28;44965;-66
2022/05/05 16:35:01;;;;;;;2.70;2.20;;;23.90;48.70;;;;;;4947109;28;45230;-66
2022/05/05 16:37:27;;;;;;;2.63;2.42;;;23.90;48.20;;;;;;4969498;28;45354;-66
2022/05/05 16:39:52;;;;;;;2.33;2.13;;;23.90;48.20;;;;;;4952155;28;45309;-66